Time;durP1;ratioP1;P1;durP2;ratioP2;P2;SDS_P1;SDS_P2;PMS_P1;PMS_P2;Temp;Humidity;BMP_temperature;BMP_pressure;BME280_temperature;BME280_humidity;BME280_pressure;Samples;Min_cycle;Max_cycle;Signal;HPM_P1;HPM_P2
2021/12/24 00:01:44;;;;;;;18.05;9.30;;;;;;;;;;6309405;28;20044;-82
2021/12/24 00:04:46;;;;;;;23.67;10.07;;;;;;;;;;6300652;28;20050;-82
2021/12/24 00:07:47;;;;;;;20.80;10.20;;;;;;;;;;6300670;28;20040;-83
2021/12/24 00:10:57;;;;;;;21.80;10.27;;;;;;;;;;6300179;28;20043;-84
2021/12/24 00:14:01;;;;;;;21.15;10.10;;;;;;;;;;6284176;28;20044;-84
2021/12/24 00:17:05;;;;;;;21.33;9.55;;;;;;;;;;6310937;28;20048;-86
2021/12/24 00:20:55;;;;;;;;;;;;;;;;;;6319586;28;20043;-84
2021/12/24 00:36:45;;;;;;;21.65;10.80;;;;;;;;;;6293266;28;20521;-84
2021/12/24 00:40:01;;;;;;;23.48;10.15;;;;;;;;;;6286953;28;20113;-84
2021/12/24 00:43:04;;;;;;;19.98;9.93;;;;;;;;;;6276106;28;20048;-84
2021/12/24 00:46:06;;;;;;;20.40;10.45;;;;;;;;;;6289542;28;20048;-83
2021/12/24 00:49:07;;;;;;;20.70;10.60;;;;;;;;;;6276310;28;20037;-84
2021/12/24 00:55:32;;;;;;;21.83;10.55;;;;;;;;;;6306393;28;20056;-83
2021/12/24 00:58:35;;;;;;;24.52;11.48;;;;;;;;;;6300099;28;20100;-82
2021/12/24 01:01:36;;;;;;;21.17;9.83;;;;;;;;;;6306903;28;20100;-84
2021/12/24 01:04:38;;;;;;;19.55;10.13;;;;;;;;;;6275052;28;20053;-84
2021/12/24 01:07:44;;;;;;;23.30;10.68;;;;;;;;;;6279928;28;20063;-84
2021/12/24 01:10:53;;;;;;;21.58;10.00;;;;;;;;;;6288412;28;20118;-84
2021/12/24 01:13:55;;;;;;;21.52;9.40;;;;;;;;;;6276805;28;20051;-84
2021/12/24 01:17:29;;;;;;;21.55;10.00;;;;;;;;;;6313713;28;20048;-83
2021/12/24 01:20:27;;;;;;;27.05;11.38;;;;;;;;;;6290016;28;20045;-84
2021/12/24 01:23:38;;;;;;;23.15;10.60;;;;;;;;;;6282111;28;20145;-84
2021/12/24 01:26:59;;;;;;;21.15;9.90;;;;;;;;;;6321792;28;20043;-82
2021/12/24 01:37:48;;;;;;;21.70;10.45;;;;;;;;;;6304176;28;20040;-81
2021/12/24 01:40:23;;;;;;;18.70;9.85;;;;;;;;;;6298170;28;20939;-82
2021/12/24 01:43:25;;;;;;;19.05;9.48;;;;;;;;;;6279401;28;20045;-84
2021/12/24 01:46:27;;;;;;;20.42;9.88;;;;;;;;;;6284662;28;20040;-83
2021/12/24 01:49:29;;;;;;;22.25;10.93;;;;;;;;;;6279794;28;20036;-83
2021/12/24 01:52:31;;;;;;;21.40;9.82;;;;;;;;;;6280982;28;20040;-83
2021/12/24 01:55:34;;;;;;;18.55;9.32;;;;;;;;;;6297088;28;20040;-86
2021/12/24 01:58:36;;;;;;;21.55;10.77;;;;;;;;;;6313186;28;20048;-85
2021/12/24 02:01:38;;;;;;;18.17;9.90;;;;;;;;;;6310848;28;20051;-85
2021/12/24 02:04:40;;;;;;;21.13;10.38;;;;;;;;;;6304972;28;20068;-84
2021/12/24 02:07:42;;;;;;;17.80;9.35;;;;;;;;;;6295873;28;20188;-85
2021/12/24 02:10:44;;;;;;;20.90;9.43;;;;;;;;;;6303027;28;20553;-84
2021/12/24 02:13:47;;;;;;;18.38;9.18;;;;;;;;;;6280394;28;20040;-86
2021/12/24 02:17:17;;;;;;;16.13;9.10;;;;;;;;;;6300976;28;20146;-84
2021/12/24 02:30:35;;;;;;;19.02;8.95;;;;;;;;;;6292525;28;20043;-84
2021/12/24 02:33:37;;;;;;;15.70;8.10;;;;;;;;;;6279087;28;20044;-83
2021/12/24 02:36:39;;;;;;;14.30;6.90;;;;;;;;;;6288274;28;20047;-84
2021/12/24 02:39:41;;;;;;;14.60;7.75;;;;;;;;;;6289749;28;20047;-83
2021/12/24 02:42:49;;;;;;;10.10;6.40;;;;;;;;;;6288581;28;20066;-85
2021/12/24 02:45:54;;;;;;;11.93;6.95;;;;;;;;;;6296086;28;20040;-83
2021/12/24 02:49:04;;;;;;;11.23;5.95;;;;;;;;;;6300886;28;20067;-84
2021/12/24 02:55:27;;;;;;;10.43;6.15;;;;;;;;;;6310902;28;20040;-83
2021/12/24 02:58:49;;;;;;;10.25;5.93;;;;;;;;;;6261537;28;20040;-83
2021/12/24 03:01:52;;;;;;;9.73;5.85;;;;;;;;;;6300286;28;20105;-82
2021/12/24 03:04:53;;;;;;;11.43;5.32;;;;;;;;;;6302680;28;20047;-84
2021/12/24 03:07:55;;;;;;;10.30;5.13;;;;;;;;;;6303184;28;20500;-84
2021/12/24 03:10:58;;;;;;;8.00;5.00;;;;;;;;;;6304882;28;20060;-86
2021/12/24 03:14:03;;;;;;;10.38;5.40;;;;;;;;;;6279474;28;20060;-84
2021/12/24 03:17:10;;;;;;;9.65;4.90;;;;;;;;;;6285136;28;20044;-82
2021/12/24 03:20:13;;;;;;;8.88;4.70;;;;;;;;;;6285042;28;20535;-83
2021/12/24 03:23:35;;;;;;;8.95;5.20;;;;;;;;;;6300210;28;20147;-84
2021/12/24 03:26:41;;;;;;;6.80;4.18;;;;;;;;;;6319536;28;20055;-83
2021/12/24 03:29:43;;;;;;;6.75;4.38;;;;;;;;;;6293343;28;20044;-83
2021/12/24 03:32:45;;;;;;;8.60;4.57;;;;;;;;;;6276052;28;20068;-84
2021/12/24 03:35:47;;;;;;;8.43;4.60;;;;;;;;;;6277196;28;20041;-85
2021/12/24 03:38:51;;;;;;;7.03;3.88;;;;;;;;;;6277229;28;20036;-85
2021/12/24 03:41:53;;;;;;;7.47;3.88;;;;;;;;;;6283822;28;20188;-83
2021/12/24 03:45:05;;;;;;;6.85;4.05;;;;;;;;;;6295495;28;20128;-85
2021/12/24 03:48:17;;;;;;;5.93;3.72;;;;;;;;;;6281509;28;20618;-83
2021/12/24 03:51:32;;;;;;;7.32;3.72;;;;;;;;;;6300946;28;20070;-83
2021/12/24 03:57:55;;;;;;;5.63;3.60;;;;;;;;;;6301576;28;20052;-85
2021/12/24 04:01:15;;;;;;;4.78;2.85;;;;;;;;;;6294536;28;20066;-85
2021/12/24 04:04:37;;;;;;;4.78;2.60;;;;;;;;;;6300225;28;20051;-82
2021/12/24 04:07:59;;;;;;;4.28;2.78;;;;;;;;;;6271644;28;20048;-83
2021/12/24 04:11:16;;;;;;;6.90;2.80;;;;;;;;;;6237726;28;1063671;-82
2021/12/24 04:14:19;;;;;;;6.45;2.90;;;;;;;;;;6288758;28;20052;-81
2021/12/24 04:17:21;;;;;;;6.55;3.55;;;;;;;;;;6310060;28;20511;-84
2021/12/24 04:27:04;;;;;;;5.70;3.10;;;;;;;;;;6318031;28;20043;-84
2021/12/24 04:30:11;;;;;;;4.28;2.75;;;;;;;;;;6301694;28;20051;-85
2021/12/24 04:33:28;;;;;;;3.53;2.20;;;;;;;;;;6302258;28;20515;-85
2021/12/24 04:52:58;;;;;;;4.95;3.00;;;;;;;;;;6299767;28;20068;-83
2021/12/24 05:02:57;;;;;;;4.38;2.83;;;;;;;;;;6317462;28;20056;-84
2021/12/24 05:09:11;;;;;;;6.22;3.00;;;;;;;;;;6277704;28;20078;-81
2021/12/24 05:12:13;;;;;;;4.75;2.70;;;;;;;;;;6277621;28;20731;-83
2021/12/24 05:15:15;;;;;;;5.05;3.00;;;;;;;;;;6295135;28;20505;-86
2021/12/24 05:21:32;;;;;;;4.95;2.45;;;;;;;;;;6314305;28;20546;-85
2021/12/24 05:22:32;;;;;;;5.43;2.65;;;;;;;;;;6306334;28;20091;-84
2021/12/24 05:25:43;;;;;;;4.82;2.20;;;;;;;;;;6274615;28;20115;-84
2021/12/24 05:28:45;;;;;;;6.28;2.92;;;;;;;;;;6297921;28;20119;-85
2021/12/24 05:31:49;;;;;;;;;;;;;;;;;;6290824;28;20048;-83
2021/12/24 05:34:50;;;;;;;6.10;2.47;;;;;;;;;;6293323;28;20579;-85
2021/12/24 05:37:52;;;;;;;6.82;2.40;;;;;;;;;;6315131;28;20054;-84
2021/12/24 05:40:53;;;;;;;6.63;2.70;;;;;;;;;;6280216;28;20044;-82
2021/12/24 05:43:56;;;;;;;7.70;2.85;;;;;;;;;;6279555;28;20048;-83
2021/12/24 05:47:10;;;;;;;7.13;3.30;;;;;;;;;;6295420;28;20036;-83
2021/12/24 05:50:34;;;;;;;4.88;2.55;;;;;;;;;;6271988;28;20044;-82
2021/12/24 05:53:56;;;;;;;6.28;2.50;;;;;;;;;;6261657;28;20051;-84
2021/12/24 05:56:57;;;;;;;6.22;2.63;;;;;;;;;;6281728;28;20048;-85
2021/12/24 06:00:04;;;;;;;6.57;2.53;;;;;;;;;;6298512;28;20120;-84
2021/12/24 06:03:13;;;;;;;;;;;;;;;;;;6295618;28;20104;-82
2021/12/24 06:06:15;;;;;;;5.63;2.55;;;;;;;;;;6292487;28;19921;-84
2021/12/24 06:09:16;;;;;;;4.40;2.55;;;;;;;;;;6303963;28;20043;-85
2021/12/24 06:12:18;;;;;;;5.53;2.70;;;;;;;;;;6287416;28;20037;-81
2021/12/24 06:15:24;;;;;;;4.80;2.85;;;;;;;;;;6299961;28;20032;-82
2021/12/24 06:18:28;;;;;;;4.95;2.88;;;;;;;;;;6277585;28;20047;-81
2021/12/24 06:21:30;;;;;;;6.50;3.20;;;;;;;;;;6275209;28;20051;-83
2021/12/24 06:24:31;;;;;;;5.55;3.00;;;;;;;;;;6301702;28;20048;-84
2021/12/24 06:27:33;;;;;;;9.70;3.47;;;;;;;;;;6284766;28;20123;-82
2021/12/24 06:30:35;;;;;;;4.20;2.60;;;;;;;;;;6316588;28;20119;-83
2021/12/24 06:33:36;;;;;;;7.55;2.83;;;;;;;;;;6292638;28;20048;-83
2021/12/24 06:36:42;;;;;;;4.53;2.75;;;;;;;;;;6300146;28;20412;-84
2021/12/24 06:39:43;;;;;;;4.30;2.40;;;;;;;;;;6299356;28;20048;-84
2021/12/24 06:42:45;;;;;;;5.65;2.90;;;;;;;;;;6295771;28;20059;-83
2021/12/24 06:45:49;;;;;;;5.47;2.65;;;;;;;;;;6318958;28;20070;-84
2021/12/24 06:48:56;;;;;;;4.60;2.22;;;;;;;;;;6318788;28;20100;-82
2021/12/24 06:51:57;;;;;;;6.95;2.70;;;;;;;;;;6318513;28;20080;-83
2021/12/24 06:54:59;;;;;;;6.65;2.90;;;;;;;;;;6318110;28;20036;-82
2021/12/24 06:58:01;;;;;;;7.32;2.40;;;;;;;;;;6319667;28;20077;-82
2021/12/24 07:01:04;;;;;;;4.30;2.30;;;;;;;;;;6312499;28;20055;-81
2021/12/24 07:04:07;;;;;;;5.53;2.63;;;;;;;;;;6302096;28;20043;-82
2021/12/24 07:07:09;;;;;;;6.07;2.53;;;;;;;;;;6318943;28;20044;-84
2021/12/24 07:10:11;;;;;;;5.30;2.50;;;;;;;;;;6290390;28;20048;-83
2021/12/24 07:13:13;;;;;;;7.50;3.08;;;;;;;;;;6300434;28;20051;-83
2021/12/24 07:16:15;;;;;;;5.57;2.95;;;;;;;;;;6315969;28;20042;-81
2021/12/24 07:19:18;;;;;;;5.15;2.65;;;;;;;;;;6294447;28;20044;-79
2021/12/24 07:22:20;;;;;;;6.10;2.70;;;;;;;;;;6274756;28;20378;-81
2021/12/24 07:25:22;;;;;;;6.65;2.92;;;;;;;;;;6306140;28;20042;-80
2021/12/24 07:28:23;;;;;;;7.55;2.95;;;;;;;;;;6316963;28;20390;-80
2021/12/24 07:31:25;;;;;;;6.47;2.70;;;;;;;;;;6294874;28;20040;-82
2021/12/24 07:34:27;;;;;;;5.20;2.22;;;;;;;;;;6275542;28;20044;-83
2021/12/24 07:37:28;;;;;;;6.55;3.10;;;;;;;;;;6297861;28;20041;-84
2021/12/24 07:40:30;;;;;;;5.45;2.55;;;;;;;;;;6271569;28;20564;-82
2021/12/24 07:43:32;;;;;;;7.28;2.80;;;;;;;;;;6306411;28;20185;-82
2021/12/24 07:46:46;;;;;;;6.50;2.72;;;;;;;;;;6281305;28;20119;-81
2021/12/24 07:49:50;;;;;;;5.43;2.60;;;;;;;;;;6299346;28;20680;-82
2021/12/24 07:52:53;;;;;;;6.93;3.03;;;;;;;;;;6300024;28;20036;-84
2021/12/24 07:55:56;;;;;;;5.78;2.72;;;;;;;;;;6308836;28;20070;-84
2021/12/24 07:58:58;;;;;;;6.78;2.85;;;;;;;;;;6299072;28;20048;-83
2021/12/24 08:02:00;;;;;;;7.05;2.90;;;;;;;;;;6292087;28;20127;-83
2021/12/24 08:05:01;;;;;;;7.25;3.17;;;;;;;;;;6300490;28;20051;-82
2021/12/24 08:08:03;;;;;;;9.73;3.38;;;;;;;;;;6297898;28;20116;-82
2021/12/24 08:11:05;;;;;;;7.47;3.20;;;;;;;;;;6303816;28;20055;-83
2021/12/24 08:14:07;;;;;;;7.80;2.65;;;;;;;;;;6295046;28;20116;-83
2021/12/24 08:17:10;;;;;;;8.23;3.00;;;;;;;;;;6286529;28;20040;-83
2021/12/24 08:20:14;;;;;;;7.55;2.70;;;;;;;;;;6274420;28;20036;-83
2021/12/24 08:23:15;;;;;;;6.80;3.20;;;;;;;;;;6275468;28;20049;-81
2021/12/24 08:26:19;;;;;;;8.57;3.78;;;;;;;;;;6315730;28;20036;-81
2021/12/24 08:29:22;;;;;;;6.22;2.78;;;;;;;;;;6313694;28;20044;-82
2021/12/24 08:32:23;;;;;;;8.43;3.00;;;;;;;;;;6305579;28;20055;-82
2021/12/24 08:35:25;;;;;;;4.28;3.03;;;;;;;;;;6314765;28;20522;-82
2021/12/24 08:38:26;;;;;;;5.95;2.53;;;;;;;;;;6305592;28;20509;-82
2021/12/24 08:41:28;;;;;;;7.03;3.55;;;;;;;;;;6271044;28;20044;-82
2021/12/24 08:44:35;;;;;;;7.68;3.20;;;;;;;;;;6284571;28;20043;-82
2021/12/24 08:47:36;;;;;;;10.68;3.25;;;;;;;;;;6278236;28;20046;-83
2021/12/24 08:50:38;;;;;;;9.05;3.80;;;;;;;;;;6273955;28;20128;-81
2021/12/24 08:53:40;;;;;;;7.07;2.67;;;;;;;;;;6291921;28;20054;-80
2021/12/24 08:56:42;;;;;;;7.30;3.17;;;;;;;;;;6293660;28;20166;-82
2021/12/24 08:59:43;;;;;;;7.07;3.38;;;;;;;;;;6295005;28;20048;-81
2021/12/24 09:02:51;;;;;;;7.00;3.72;;;;;;;;;;6292956;28;20052;-81
2021/12/24 09:05:54;;;;;;;7.50;3.10;;;;;;;;;;6293496;28;20147;-82
2021/12/24 09:08:56;;;;;;;7.88;3.42;;;;;;;;;;6302246;28;20454;-81
2021/12/24 09:11:57;;;;;;;9.73;4.32;;;;;;;;;;6302219;28;20037;-81
2021/12/24 09:14:59;;;;;;;7.38;3.42;;;;;;;;;;6281924;28;20390;-81
2021/12/24 09:18:03;;;;;;;7.88;3.63;;;;;;;;;;6294050;28;20044;-81
2021/12/24 09:21:12;;;;;;;8.00;3.22;;;;;;;;;;6299578;28;20048;-83
2021/12/24 09:24:14;;;;;;;7.53;3.22;;;;;;;;;;6293955;28;20047;-82
2021/12/24 09:27:16;;;;;;;10.15;2.95;;;;;;;;;;6310326;28;20115;-82
2021/12/24 09:30:18;;;;;;;6.47;2.90;;;;;;;;;;6291633;28;20060;-83
2021/12/24 09:33:20;;;;;;;9.00;3.05;;;;;;;;;;6307423;28;20108;-82
2021/12/24 09:36:25;;;;;;;6.78;2.88;;;;;;;;;;6290520;28;20454;-83
2021/12/24 09:39:27;;;;;;;10.05;3.40;;;;;;;;;;6284378;28;20040;-84
2021/12/24 09:42:30;;;;;;;5.63;2.83;;;;;;;;;;6294392;28;20405;-84
2021/12/24 09:45:31;;;;;;;8.80;3.42;;;;;;;;;;6292544;28;20412;-81
2021/12/24 09:48:33;;;;;;;8.02;2.65;;;;;;;;;;6297822;28;20115;-81
2021/12/24 09:51:38;;;;;;;5.82;2.30;;;;;;;;;;6318492;28;20036;-83
2021/12/24 09:54:43;;;;;;;8.68;2.95;;;;;;;;;;6317581;28;20074;-83
2021/12/24 09:57:46;;;;;;;6.30;3.40;;;;;;;;;;6297429;28;20040;-83
2021/12/24 10:00:48;;;;;;;8.13;2.60;;;;;;;;;;6283878;28;20045;-82
2021/12/24 10:04:18;;;;;;;7.55;3.33;;;;;;;;;;6292757;28;20051;-81
2021/12/24 10:07:24;;;;;;;4.80;2.30;;;;;;;;;;6317453;28;20139;-82
2021/12/24 10:10:29;;;;;;;4.35;2.70;;;;;;;;;;6313892;28;20781;-83
2021/12/24 10:13:37;;;;;;;7.20;2.20;;;;;;;;;;6296232;28;20052;-82
2021/12/24 10:16:45;;;;;;;9.70;2.50;;;;;;;;;;6300970;28;20044;-82
2021/12/24 10:19:49;;;;;;;5.43;2.92;;;;;;;;;;6300906;28;20081;-80
2021/12/24 10:22:53;;;;;;;4.50;1.73;;;;;;;;;;6284984;28;20040;-80
2021/12/24 10:26:10;;;;;;;7.47;2.65;;;;;;;;;;6298173;28;20096;-81
2021/12/24 10:29:18;;;;;;;6.05;2.10;;;;;;;;;;6289044;28;20051;-80
2021/12/24 10:32:19;;;;;;;4.72;2.00;;;;;;;;;;6277985;28;20044;-81
2021/12/24 10:35:24;;;;;;;9.13;2.58;;;;;;;;;;6298011;28;20042;-80
2021/12/24 10:38:26;;;;;;;6.72;2.63;;;;;;;;;;6293773;28;20052;-80
2021/12/24 10:41:29;;;;;;;4.53;2.15;;;;;;;;;;6287097;28;20068;-81
2021/12/24 10:44:34;;;;;;;6.35;1.55;;;;;;;;;;6300584;28;20103;-80
2021/12/24 10:47:39;;;;;;;4.60;1.80;;;;;;;;;;6303940;28;20040;-78
2021/12/24 10:50:49;;;;;;;6.65;1.75;;;;;;;;;;6321095;28;20040;-77
2021/12/24 10:54:06;;;;;;;6.32;2.15;;;;;;;;;;6321119;28;20170;-80
2021/12/24 10:57:19;;;;;;;4.80;2.05;;;;;;;;;;6322716;28;20108;-79
2021/12/24 11:00:42;;;;;;;6.10;2.10;;;;;;;;;;6309419;28;20038;-79
2021/12/24 11:03:44;;;;;;;8.23;2.22;;;;;;;;;;6292795;28;20500;-80
2021/12/24 11:06:51;;;;;;;4.93;1.98;;;;;;;;;;6312643;28;20455;-80
2021/12/24 11:10:12;;;;;;;6.25;2.63;;;;;;;;;;6295159;28;20047;-81
2021/12/24 11:13:19;;;;;;;7.38;2.28;;;;;;;;;;6315320;28;20070;-80
2021/12/24 11:16:22;;;;;;;7.18;2.33;;;;;;;;;;6312125;28;20040;-82
2021/12/24 11:19:28;;;;;;;4.00;2.13;;;;;;;;;;6294210;28;20151;-81
2021/12/24 11:22:29;;;;;;;4.20;1.92;;;;;;;;;;6313935;28;20040;-80
2021/12/24 11:25:35;;;;;;;5.53;2.03;;;;;;;;;;6296497;28;20467;-80
2021/12/24 11:28:38;;;;;;;3.53;1.90;;;;;;;;;;6295915;28;20063;-82
2021/12/24 11:31:39;;;;;;;4.53;2.08;;;;;;;;;;6298100;28;20044;-81
2021/12/24 11:34:41;;;;;;;5.75;2.03;;;;;;;;;;6301956;28;20081;-81
2021/12/24 11:37:44;;;;;;;7.65;2.17;;;;;;;;;;6300379;28;20092;-81
2021/12/24 11:40:49;;;;;;;6.22;1.75;;;;;;;;;;6283039;28;20052;-81
2021/12/24 11:43:52;;;;;;;5.38;1.80;;;;;;;;;;6296014;28;20142;-82
2021/12/24 11:46:54;;;;;;;;;;;;;;;;;;6277036;28;20044;-83
2021/12/24 11:49:55;;;;;;;9.68;2.20;;;;;;;;;;6293945;28;20116;-82
2021/12/24 11:53:04;;;;;;;4.50;1.80;;;;;;;;;;6294511;28;20044;-82
2021/12/24 11:56:12;;;;;;;3.92;1.38;;;;;;;;;;6293607;28;20059;-82
2021/12/24 11:59:15;;;;;;;8.02;1.75;;;;;;;;;;6308306;28;20103;-82
2021/12/24 12:02:36;;;;;;;;;;;;;;;;;;6287971;28;20048;-81
2021/12/24 12:05:41;;;;;;;26.58;7.85;;;;;;;;;;6283059;28;19920;-79
2021/12/24 12:08:47;;;;;;;4.35;1.85;;;;;;;;;;6279492;28;20067;-82
2021/12/24 12:11:57;;;;;;;9.15;2.22;;;;;;;;;;6289601;28;20416;-81
2021/12/24 12:15:30;;;;;;;4.22;1.70;;;;;;;;;;6317724;28;20048;-82
2021/12/24 12:18:43;;;;;;;13.77;4.33;;;;;;;;;;6283354;28;20053;-82
2021/12/24 12:25:36;;;;;;;6.53;2.47;;;;;;;;;;6297673;28;20052;-81
2021/12/24 12:29:24;;;;;;;5.22;1.80;;;;;;;;;;6266537;28;20040;-82
2021/12/24 12:32:36;;;;;;;5.63;2.00;;;;;;;;;;6266482;28;20048;-81
2021/12/24 12:35:54;;;;;;;5.53;1.95;;;;;;;;;;6286748;28;20044;-81
2021/12/24 12:38:57;;;;;;;5.05;1.92;;;;;;;;;;6288526;28;20595;-81
2021/12/24 12:41:59;;;;;;;8.70;2.08;;;;;;;;;;6285972;28;20396;-82
2021/12/24 12:45:00;;;;;;;5.68;1.42;;;;;;;;;;6281623;28;20476;-81
2021/12/24 12:48:06;;;;;;;4.55;1.70;;;;;;;;;;6283616;28;20113;-83
2021/12/24 12:51:07;;;;;;;5.82;1.40;;;;;;;;;;6313072;28;20519;-81
2021/12/24 12:54:31;;;;;;;8.63;2.00;;;;;;;;;;6289255;28;20128;-82
2021/12/24 12:57:35;;;;;;;8.38;1.90;;;;;;;;;;6288508;28;20535;-83
2021/12/24 13:00:36;;;;;;;8.52;1.70;;;;;;;;;;6301849;28;20040;-83
2021/12/24 13:03:57;;;;;;;4.60;1.90;;;;;;;;;;6270719;28;20036;-82
2021/12/24 13:06:58;;;;;;;7.30;2.13;;;;;;;;;;6271793;28;20052;-82
2021/12/24 13:10:03;;;;;;;5.68;1.90;;;;;;;;;;6279954;28;20044;-80
2021/12/24 13:13:06;;;;;;;9.27;1.60;;;;;;;;;;6318252;28;20066;-80
2021/12/24 13:16:16;;;;;;;7.72;1.98;;;;;;;;;;6320050;28;20066;-80
2021/12/24 13:19:27;;;;;;;6.00;1.88;;;;;;;;;;6306060;28;20089;-81
2021/12/24 13:22:33;;;;;;;6.15;1.95;;;;;;;;;;6324674;28;20036;-81
2021/12/24 13:25:37;;;;;;;4.93;1.92;;;;;;;;;;6297883;28;20044;-81
2021/12/24 13:28:53;;;;;;;3.78;2.20;;;;;;;;;;6307745;28;20044;-81
2021/12/24 13:31:57;;;;;;;9.50;2.17;;;;;;;;;;6290102;28;20037;-81
2021/12/24 13:34:58;;;;;;;6.10;2.58;;;;;;;;;;6299473;28;20048;-82
2021/12/24 13:38:16;;;;;;;6.60;2.28;;;;;;;;;;6297863;28;20421;-80
2021/12/24 13:41:23;;;;;;;5.05;2.30;;;;;;;;;;6299486;28;20048;-82
2021/12/24 13:44:28;;;;;;;11.57;2.25;;;;;;;;;;6310758;28;20109;-82
2021/12/24 13:47:51;;;;;;;9.32;2.78;;;;;;;;;;6298491;28;20051;-82
2021/12/24 13:57:18;;;;;;;9.00;2.55;;;;;;;;;;6296056;28;20047;-82
2021/12/24 14:00:22;;;;;;;9.40;2.65;;;;;;;;;;6300655;28;20071;-82
2021/12/24 14:03:26;;;;;;;7.32;2.60;;;;;;;;;;6277854;28;20044;-82
2021/12/24 14:06:38;;;;;;;6.88;2.90;;;;;;;;;;6279311;28;20489;-82
2021/12/24 14:09:40;;;;;;;5.10;2.65;;;;;;;;;;6297410;28;20405;-82
2021/12/24 14:12:41;;;;;;;11.77;3.28;;;;;;;;;;6302073;28;20182;-82
2021/12/24 14:15:59;;;;;;;7.35;3.10;;;;;;;;;;6305581;28;20032;-83
2021/12/24 14:19:17;;;;;;;10.77;2.85;;;;;;;;;;6275898;28;20051;-85
2021/12/24 14:22:27;;;;;;;9.13;3.00;;;;;;;;;;6272372;28;20040;-83
2021/12/24 14:25:33;;;;;;;9.70;2.90;;;;;;;;;;6295953;28;20437;-84
2021/12/24 14:28:35;;;;;;;5.50;2.33;;;;;;;;;;6299963;28;20140;-84
2021/12/24 14:31:49;;;;;;;9.25;2.80;;;;;;;;;;6293315;28;20390;-83
2021/12/24 14:34:53;;;;;;;7.65;2.70;;;;;;;;;;6305855;28;20044;-83
2021/12/24 14:38:07;;;;;;;8.25;2.20;;;;;;;;;;6312932;28;20108;-82
2021/12/24 14:41:16;;;;;;;5.50;2.53;;;;;;;;;;6289049;28;20124;-83
2021/12/24 14:44:30;;;;;;;8.00;2.90;;;;;;;;;;6291083;28;20072;-83
2021/12/24 14:47:32;;;;;;;7.78;2.38;;;;;;;;;;6296499;28;20478;-82
2021/12/24 14:51:02;;;;;;;6.43;2.55;;;;;;;;;;6279620;28;20397;-83
2021/12/24 14:54:05;;;;;;;7.97;2.60;;;;;;;;;;6294295;28;20123;-81
2021/12/24 14:57:07;;;;;;;8.00;2.10;;;;;;;;;;6264715;28;20055;-83
2021/12/24 15:00:14;;;;;;;6.43;2.80;;;;;;;;;;6291217;28;20040;-83
2021/12/24 15:03:20;;;;;;;6.43;2.10;;;;;;;;;;6305707;28;20056;-83
2021/12/24 15:06:29;;;;;;;7.35;2.70;;;;;;;;;;6306218;28;20097;-83
2021/12/24 15:09:32;;;;;;;7.80;2.38;;;;;;;;;;6296394;28;20122;-83
2021/12/24 15:12:41;;;;;;;5.45;2.00;;;;;;;;;;6297142;28;20122;-83
2021/12/24 15:15:54;;;;;;;10.23;2.05;;;;;;;;;;6311950;28;20204;-83
2021/12/24 15:18:56;;;;;;;4.72;2.42;;;;;;;;;;6323142;28;20046;-84
2021/12/24 15:21:57;;;;;;;9.25;2.47;;;;;;;;;;6304250;28;20127;-83
2021/12/24 15:24:59;;;;;;;9.88;2.45;;;;;;;;;;6323949;28;20051;-83
2021/12/24 15:28:09;;;;;;;8.32;2.60;;;;;;;;;;6289589;28;20048;-83
2021/12/24 15:31:13;;;;;;;7.50;2.30;;;;;;;;;;6294960;28;20028;-83
2021/12/24 15:34:14;;;;;;;4.53;2.30;;;;;;;;;;6304939;28;20032;-83
2021/12/24 15:37:17;;;;;;;6.30;2.72;;;;;;;;;;6305077;28;20069;-83
2021/12/24 15:40:19;;;;;;;8.97;2.90;;;;;;;;;;6322697;28;20051;-84
2021/12/24 15:43:41;;;;;;;8.48;2.80;;;;;;;;;;6321978;28;20052;-83
2021/12/24 15:46:43;;;;;;;5.15;2.80;;;;;;;;;;6303173;28;20051;-83
2021/12/24 15:49:45;;;;;;;10.52;2.90;;;;;;;;;;6279743;28;20044;-82
2021/12/24 15:52:46;;;;;;;7.93;2.95;;;;;;;;;;6295417;28;20108;-81
2021/12/24 15:55:49;;;;;;;4.90;2.58;;;;;;;;;;6312274;28;20151;-82
2021/12/24 15:58:51;;;;;;;7.32;2.83;;;;;;;;;;6297244;28;20047;-83
2021/12/24 16:01:53;;;;;;;8.07;3.05;;;;;;;;;;6303252;28;20134;-83
2021/12/24 16:04:55;;;;;;;7.55;3.03;;;;;;;;;;6322174;28;20055;-82
2021/12/24 16:07:56;;;;;;;7.55;2.80;;;;;;;;;;6300877;28;20479;-82
2021/12/24 16:10:58;;;;;;;8.60;4.15;;;;;;;;;;6304052;28;20635;-83
2021/12/24 16:14:00;;;;;;;8.00;2.85;;;;;;;;;;6277723;28;20106;-83
2021/12/24 16:17:02;;;;;;;12.10;3.13;;;;;;;;;;6299423;28;20146;-83
2021/12/24 16:20:05;;;;;;;8.20;3.05;;;;;;;;;;6300814;28;20048;-82
2021/12/24 16:23:07;;;;;;;6.10;3.15;;;;;;;;;;6318666;28;20492;-80
2021/12/24 16:26:09;;;;;;;5.97;2.67;;;;;;;;;;6309910;28;20051;-81
2021/12/24 16:29:14;;;;;;;11.85;3.25;;;;;;;;;;6317036;28;20059;-83
2021/12/24 16:32:17;;;;;;;8.57;3.10;;;;;;;;;;6302364;28;20048;-83
2021/12/24 16:35:23;;;;;;;6.00;3.45;;;;;;;;;;6274908;28;20104;-80
2021/12/24 16:38:26;;;;;;;7.68;2.97;;;;;;;;;;6275314;28;20072;-83
2021/12/24 16:41:27;;;;;;;8.30;3.60;;;;;;;;;;6306360;28;20060;-81
2021/12/24 16:44:29;;;;;;;8.35;2.70;;;;;;;;;;6309206;28;20038;-84
2021/12/24 16:47:31;;;;;;;5.65;2.30;;;;;;;;;;6292981;28;20810;-82
2021/12/24 16:50:33;;;;;;;5.88;2.42;;;;;;;;;;6299889;28;20508;-81
2021/12/24 16:53:35;;;;;;;4.97;2.33;;;;;;;;;;6298618;28;20130;-81
2021/12/24 16:56:36;;;;;;;6.68;2.40;;;;;;;;;;6293060;28;20042;-83
2021/12/24 16:59:40;;;;;;;6.55;2.83;;;;;;;;;;6297928;28;20146;-83
2021/12/24 17:02:41;;;;;;;5.78;2.35;;;;;;;;;;6293049;28;20086;-81
2021/12/24 17:05:43;;;;;;;7.70;2.70;;;;;;;;;;6275371;28;20047;-85
2021/12/24 17:08:46;;;;;;;5.07;2.15;;;;;;;;;;6284757;28;20040;-81
2021/12/24 17:11:48;;;;;;;8.88;2.25;;;;;;;;;;6317283;28;20039;-84
2021/12/24 17:14:58;;;;;;;7.80;2.37;;;;;;;;;;6295974;28;20040;-83
2021/12/24 17:18:00;;;;;;;6.70;2.20;;;;;;;;;;6314246;28;20454;-81
2021/12/24 17:21:02;;;;;;;6.75;2.42;;;;;;;;;;6317466;28;20150;-82
2021/12/24 17:24:05;;;;;;;6.75;2.55;;;;;;;;;;6311515;28;20579;-81
2021/12/24 17:27:07;;;;;;;5.90;2.30;;;;;;;;;;6314756;28;20044;-83
2021/12/24 17:30:12;;;;;;;6.28;3.00;;;;;;;;;;6291264;28;20049;-84
2021/12/24 17:33:14;;;;;;;9.07;3.28;;;;;;;;;;6307804;28;20511;-82
2021/12/24 17:36:15;;;;;;;9.15;3.75;;;;;;;;;;6318877;28;20090;-83
2021/12/24 17:39:17;;;;;;;10.27;4.13;;;;;;;;;;6282715;28;20046;-81
2021/12/24 17:42:19;;;;;;;12.43;3.83;;;;;;;;;;6299313;28;20066;-82
2021/12/24 17:45:21;;;;;;;7.35;3.30;;;;;;;;;;6283272;28;20040;-83
2021/12/24 17:48:22;;;;;;;10.13;3.20;;;;;;;;;;6309862;28;20405;-82
2021/12/24 17:51:24;;;;;;;8.35;3.10;;;;;;;;;;6317503;28;20126;-83
2021/12/24 17:54:27;;;;;;;11.48;2.90;;;;;;;;;;6309764;28;20037;-82
2021/12/24 17:57:28;;;;;;;9.23;3.43;;;;;;;;;;6274789;28;20055;-82
2021/12/24 18:00:30;;;;;;;10.15;3.40;;;;;;;;;;6297601;28;20441;-82
2021/12/24 18:03:34;;;;;;;11.73;3.63;;;;;;;;;;6318556;28;20059;-83
2021/12/24 18:06:36;;;;;;;9.10;3.22;;;;;;;;;;6323061;28;20043;-83
2021/12/24 18:09:38;;;;;;;6.35;3.40;;;;;;;;;;6301205;28;20048;-82
2021/12/24 18:12:39;;;;;;;10.70;3.28;;;;;;;;;;6286987;28;20124;-83
2021/12/24 18:15:41;;;;;;;8.05;3.83;;;;;;;;;;6296850;28;20040;-81
2021/12/24 18:18:44;;;;;;;7.20;3.15;;;;;;;;;;6296600;28;20575;-83
2021/12/24 18:21:45;;;;;;;11.95;3.28;;;;;;;;;;6278545;28;20128;-83
2021/12/24 18:24:47;;;;;;;12.43;3.38;;;;;;;;;;6315357;28;20047;-84
2021/12/24 18:27:49;;;;;;;10.73;3.90;;;;;;;;;;6321285;28;20044;-83
2021/12/24 18:30:50;;;;;;;10.13;4.22;;;;;;;;;;6302469;28;20063;-83
2021/12/24 18:33:52;;;;;;;9.93;4.90;;;;;;;;;;6303609;28;20059;-83
2021/12/24 18:36:54;;;;;;;9.90;3.95;;;;;;;;;;6322122;28;20062;-82
2021/12/24 18:39:55;;;;;;;11.10;3.75;;;;;;;;;;6320379;28;20127;-84
2021/12/24 18:42:57;;;;;;;9.07;3.50;;;;;;;;;;6314006;28;20994;-85
2021/12/24 18:46:00;;;;;;;10.63;3.85;;;;;;;;;;6301500;28;20047;-84
2021/12/24 18:49:03;;;;;;;13.02;4.90;;;;;;;;;;6306482;28;20043;-82
2021/12/24 18:52:06;;;;;;;9.98;3.78;;;;;;;;;;6305954;28;20044;-82
2021/12/24 18:55:08;;;;;;;10.68;4.65;;;;;;;;;;6280725;28;20070;-80
2021/12/24 18:58:10;;;;;;;6.90;3.40;;;;;;;;;;6293807;28;20063;-82
2021/12/24 19:01:12;;;;;;;8.57;3.65;;;;;;;;;;6291375;28;20622;-81
2021/12/24 19:04:14;;;;;;;10.10;3.47;;;;;;;;;;6298471;28;20153;-82
2021/12/24 19:07:16;;;;;;;10.27;3.70;;;;;;;;;;6316464;28;20047;-81
2021/12/24 19:10:18;;;;;;;12.15;3.80;;;;;;;;;;6311714;28;20059;-82
2021/12/24 19:13:20;;;;;;;11.47;3.57;;;;;;;;;;6307902;28;20046;-83
2021/12/24 19:16:23;;;;;;;8.70;3.75;;;;;;;;;;6300692;28;20048;-82
2021/12/24 19:19:25;;;;;;;9.52;4.00;;;;;;;;;;6315999;28;20054;-82
2021/12/24 19:22:27;;;;;;;10.05;3.90;;;;;;;;;;6317992;28;20456;-82
2021/12/24 19:25:33;;;;;;;9.48;3.92;;;;;;;;;;6318660;28;20552;-81
2021/12/24 19:28:36;;;;;;;9.30;3.47;;;;;;;;;;6315878;28;20159;-83
2021/12/24 19:31:38;;;;;;;9.48;3.65;;;;;;;;;;6300963;28;20447;-83
2021/12/24 19:34:40;;;;;;;11.63;4.38;;;;;;;;;;6281528;28;20040;-83
2021/12/24 19:37:42;;;;;;;12.85;4.65;;;;;;;;;;6293770;28;20075;-84
2021/12/24 19:40:44;;;;;;;11.77;4.25;;;;;;;;;;6308657;28;20055;-83
2021/12/24 19:43:45;;;;;;;14.25;4.85;;;;;;;;;;6291676;28;20036;-83
2021/12/24 19:46:47;;;;;;;9.80;4.75;;;;;;;;;;6297151;28;20042;-84
2021/12/24 19:49:49;;;;;;;8.75;4.35;;;;;;;;;;6314988;28;20055;-84
2021/12/24 19:52:51;;;;;;;14.93;4.72;;;;;;;;;;6294377;28;20044;-85